Time;durP1;ratioP1;P1;durP2;ratioP2;P2;SDS_P1;SDS_P2;PMS_P1;PMS_P2;Temp;Humidity;BMP_temperature;BMP_pressure;BME280_temperature;BME280_humidity;BME280_pressure;Samples;Min_cycle;Max_cycle;Signal;HPM_P1;HPM_P2
2022/06/10 00:02:09;;;;;;;15.18;13.77;;;13.60;99.90;;;;;;4993653;28;20644;-67
2022/06/10 00:04:36;;;;;;;16.15;12.90;;;13.50;99.90;;;;;;4999545;28;20121;-68
2022/06/10 00:07:03;;;;;;;12.82;11.50;;;13.50;99.90;;;;;;5001641;28;20077;-67
2022/06/10 00:09:30;;;;;;;14.00;12.60;;;13.50;99.90;;;;;;5001831;28;20046;-67
2022/06/10 00:11:57;;;;;;;14.20;12.90;;;13.50;99.90;;;;;;4996879;28;20528;-68
2022/06/10 00:14:24;;;;;;;14.55;13.05;;;13.40;99.90;;;;;;4992326;28;20084;-67
2022/06/10 00:16:51;;;;;;;15.10;13.70;;;13.40;99.90;;;;;;4996498;28;20238;-68
2022/06/10 00:19:18;;;;;;;16.73;12.38;;;13.40;99.90;;;;;;4998280;28;20145;-68
2022/06/10 00:21:45;;;;;;;13.90;12.55;;;13.30;99.90;;;;;;5000990;28;20073;-68
2022/06/10 00:24:12;;;;;;;14.00;12.63;;;13.20;99.90;;;;;;4999585;28;20046;-68
2022/06/10 00:26:39;;;;;;;12.77;11.65;;;13.20;99.90;;;;;;5000955;28;20061;-68
2022/06/10 00:29:06;;;;;;;13.45;12.15;;;13.20;99.90;;;;;;4997907;28;20566;-67
2022/06/10 00:31:33;;;;;;;12.55;11.20;;;13.20;99.90;;;;;;5000344;28;20176;-67
2022/06/10 00:34:00;;;;;;;12.90;11.60;;;13.20;99.90;;;;;;5001964;28;20183;-68
2022/06/10 00:36:27;;;;;;;13.07;11.77;;;13.20;99.90;;;;;;5001076;28;20058;-73
2022/06/10 00:38:54;;;;;;;12.98;11.73;;;13.20;99.90;;;;;;5002077;28;20061;-68
2022/06/10 00:41:21;;;;;;;14.10;12.77;;;13.20;99.90;;;;;;4993023;28;20108;-68
2022/06/10 00:43:49;;;;;;;16.23;14.52;;;13.20;99.90;;;;;;4993338;28;20149;-67
2022/06/10 00:46:35;;;;;;;13.23;11.88;;;13.20;99.90;;;;;;4996383;28;20061;-67
2022/06/10 00:49:02;;;;;;;14.95;13.63;;;13.20;99.90;;;;;;4997657;28;20094;-68
2022/06/10 00:51:44;;;;;;;14.40;13.00;;;13.10;99.90;;;;;;5001084;28;20465;-68
2022/06/10 00:54:29;;;;;;;14.57;13.18;;;13.20;99.90;;;;;;5003814;28;20104;-67
2022/06/10 00:57:06;;;;;;;15.57;14.07;;;13.20;99.90;;;;;;4998856;28;20050;-67
2022/06/10 01:00:00;;;;;;;14.80;13.27;;;13.10;99.90;;;;;;5000479;28;20566;-68
2022/06/10 01:02:33;;;;;;;14.60;12.98;;;13.10;99.90;;;;;;4993927;28;20050;-68
2022/06/10 01:05:03;;;;;;;14.50;13.15;;;13.10;99.90;;;;;;4996561;28;20060;-67
2022/06/10 01:07:35;;;;;;;13.95;12.48;;;13.10;99.90;;;;;;5000373;28;20061;-67
2022/06/10 01:10:06;;;;;;;16.00;14.00;;;13.10;99.90;;;;;;4998433;28;20596;-67
2022/06/10 01:13:12;;;;;;;15.27;13.77;;;13.10;99.90;;;;;;4998536;28;20042;-68
2022/06/10 01:16:11;;;;;;;14.43;13.02;;;13.10;99.90;;;;;;4994943;28;20061;-67
2022/06/10 01:19:16;;;;;;;13.98;12.68;;;13.10;99.90;;;;;;4992902;28;20740;-67
2022/06/10 01:22:33;;;;;;;16.75;13.90;;;13.10;99.90;;;;;;4998234;28;20148;-67
2022/06/10 01:25:22;;;;;;;15.02;13.38;;;13.10;99.90;;;;;;4953334;28;20089;-67
2022/06/10 01:28:03;;;;;;;16.52;14.93;;;13.10;99.90;;;;;;4991324;28;20102;-67
2022/06/10 01:30:55;;;;;;;18.08;16.10;;;13.10;99.90;;;;;;4999422;28;20048;-67
2022/06/10 01:33:54;;;;;;;17.38;15.63;;;13.10;99.90;;;;;;4999109;28;20092;-69
2022/06/10 01:36:38;;;;;;;17.52;15.82;;;13.10;99.90;;;;;;4999489;28;20049;-68
2022/06/10 01:39:05;;;;;;;17.60;15.70;;;13.20;99.90;;;;;;4999364;28;20136;-67
2022/06/10 01:41:47;;;;;;;19.13;15.45;;;13.20;99.90;;;;;;5000846;28;20104;-67
2022/06/10 01:44:29;;;;;;;14.52;13.07;;;13.20;99.90;;;;;;4979682;28;20247;-67
2022/06/10 01:47:13;;;;;;;14.77;13.30;;;13.30;99.90;;;;;;4998909;28;20455;-68
2022/06/10 01:49:55;;;;;;;12.48;11.23;;;13.30;99.90;;;;;;4997991;28;21143;-67
2022/06/10 01:52:41;;;;;;;17.40;15.35;;;13.30;99.90;;;;;;4999215;28;20651;-68
2022/06/10 01:55:40;;;;;;;14.88;13.40;;;13.30;99.90;;;;;;5000314;28;20042;-67
2022/06/10 01:58:14;;;;;;;14.07;11.53;;;13.30;99.90;;;;;;4991695;28;20060;-67
2022/06/10 02:00:48;;;;;;;12.48;11.20;;;13.40;99.90;;;;;;4992224;28;20053;-69
2022/06/10 02:03:40;;;;;;;12.75;11.45;;;13.40;99.90;;;;;;4983825;28;20054;-67
2022/06/10 02:06:13;;;;;;;21.77;9.55;;;13.40;99.90;;;;;;4998320;28;20042;-67
2022/06/10 02:08:51;;;;;;;13.52;12.23;;;13.40;99.90;;;;;;4995305;28;20053;-68
2022/06/10 02:11:21;;;;;;;12.60;11.40;;;13.50;99.90;;;;;;5003542;28;20069;-68
2022/06/10 02:13:53;;;;;;;12.40;11.25;;;13.40;99.90;;;;;;5002286;28;20136;-68
2022/06/10 02:16:25;;;;;;;12.13;10.35;;;13.50;99.90;;;;;;5000688;28;20052;-68
2022/06/10 02:19:13;;;;;;;11.32;10.20;;;13.50;99.90;;;;;;5004736;28;20034;-67
2022/06/10 02:21:45;;;;;;;14.05;12.65;;;13.60;99.90;;;;;;5001962;28;20405;-67
2022/06/10 02:24:17;;;;;;;13.95;12.57;;;13.70;99.90;;;;;;5001526;28;20820;-67
2022/06/10 02:26:47;;;;;;;14.93;13.40;;;13.70;99.90;;;;;;4997285;28;21089;-68
2022/06/10 02:29:27;;;;;;;14.63;12.67;;;13.80;99.90;;;;;;5000277;28;20062;-69
2022/06/10 02:31:59;;;;;;;15.80;12.57;;;13.80;99.90;;;;;;4998055;28;20091;-68
2022/06/10 02:34:28;;;;;;;15.57;13.77;;;13.80;99.90;;;;;;4998274;28;20149;-67
2022/06/10 02:37:16;;;;;;;13.82;12.38;;;13.90;99.90;;;;;;5005142;28;20116;-67
2022/06/10 02:39:56;;;;;;;15.82;14.32;;;13.90;99.90;;;;;;5005135;28;20049;-67
2022/06/10 02:42:48;;;;;;;14.90;13.45;;;13.90;99.90;;;;;;5001239;28;20066;-69
2022/06/10 02:45:34;;;;;;;15.70;14.35;;;14.00;99.90;;;;;;4998146;28;20137;-72
2022/06/10 02:48:37;;;;;;;14.27;12.90;;;14.00;99.90;;;;;;5003649;28;20452;-68
2022/06/10 02:51:05;;;;;;;14.25;12.90;;;14.00;99.90;;;;;;4978816;28;20057;-68
2022/06/10 02:53:32;;;;;;;15.60;14.00;;;14.00;99.90;;;;;;4998736;28;20053;-69
2022/06/10 02:55:59;;;;;;;17.27;15.57;;;14.00;99.90;;;;;;5001094;28;20802;-68
2022/06/10 03:01:43;;;;;;;16.90;15.13;;;14.10;99.90;;;;;;5002039;28;20058;-70
2022/06/10 03:04:34;;;;;;;15.63;14.07;;;14.10;99.90;;;;;;4996658;28;20134;-68
2022/06/10 03:07:16;;;;;;;15.05;13.55;;;14.10;99.90;;;;;;4974915;28;20125;-68
2022/06/10 03:10:08;;;;;;;13.27;11.88;;;14.10;99.90;;;;;;4999503;28;20479;-70
2022/06/10 03:12:38;;;;;;;15.93;14.43;;;14.10;99.90;;;;;;5000031;28;20057;-68
2022/06/10 03:15:13;;;;;;;15.85;14.25;;;14.10;99.90;;;;;;5002315;28;20054;-68
2022/06/10 03:17:53;;;;;;;14.30;12.90;;;14.10;99.90;;;;;;5000547;28;20562;-68
2022/06/10 03:20:47;;;;;;;13.85;12.50;;;14.20;99.90;;;;;;4993615;28;20089;-68
2022/06/10 03:23:34;;;;;;;15.50;13.95;;;14.20;99.90;;;;;;5002197;28;20068;-69
2022/06/10 03:26:13;;;;;;;16.20;14.35;;;14.20;99.90;;;;;;4988695;28;20068;-68
2022/06/10 03:28:55;;;;;;;16.08;14.50;;;14.30;99.90;;;;;;4998324;28;20050;-69
2022/06/10 03:31:35;;;;;;;16.52;14.93;;;14.30;99.90;;;;;;4998294;28;20080;-68
2022/06/10 03:34:11;;;;;;;15.70;14.07;;;14.40;99.90;;;;;;5001677;28;20057;-70
2022/06/10 03:36:39;;;;;;;15.82;14.07;;;14.40;99.90;;;;;;5001683;28;20506;-68
2022/06/10 03:39:07;;;;;;;15.43;14.02;;;14.50;99.90;;;;;;4999601;28;20551;-68
2022/06/10 03:41:54;;;;;;;15.00;13.55;;;14.50;99.90;;;;;;4994543;28;20088;-69
2022/06/10 03:44:21;;;;;;;16.00;14.50;;;14.60;99.90;;;;;;4998273;28;20172;-69
2022/06/10 03:46:51;;;;;;;16.40;14.27;;;14.60;99.90;;;;;;5001378;28;20054;-68
2022/06/10 03:49:25;;;;;;;15.23;13.80;;;14.70;99.90;;;;;;4999484;28;20054;-68
2022/06/10 03:51:52;;;;;;;14.57;13.13;;;14.70;99.90;;;;;;5001232;28;20160;-70
2022/06/10 03:54:20;;;;;;;15.98;14.38;;;14.80;99.90;;;;;;4997823;28;20143;-73
2022/06/10 03:56:47;;;;;;;15.70;14.10;;;14.90;99.90;;;;;;5002890;28;20762;-67
2022/06/10 03:59:14;;;;;;;16.15;14.65;;;15.00;99.90;;;;;;4997702;28;20054;-68
2022/06/10 04:01:41;;;;;;;15.43;13.98;;;15.00;99.90;;;;;;5002691;28;20097;-68
2022/06/10 04:04:08;;;;;;;15.43;13.80;;;15.10;99.90;;;;;;4999513;28;20052;-68
2022/06/10 04:06:35;;;;;;;12.85;11.65;;;15.20;99.90;;;;;;4999895;28;20136;-68
2022/06/10 04:09:22;;;;;;;14.27;12.98;;;15.20;99.90;;;;;;4999572;28;20050;-68
2022/06/10 04:11:49;;;;;;;15.85;14.25;;;15.20;99.90;;;;;;4984388;28;20140;-68
2022/06/10 04:14:16;;;;;;;15.52;14.00;;;15.30;99.90;;;;;;5000596;28;20061;-69
2022/06/10 04:16:43;;;;;;;14.98;13.57;;;15.30;99.90;;;;;;5000801;28;20094;-68
2022/06/10 04:19:12;;;;;;;17.02;15.32;;;15.40;99.90;;;;;;4999063;28;20053;-68
2022/06/10 04:21:39;;;;;;;14.73;13.38;;;15.40;99.90;;;;;;5000403;28;20050;-68
2022/06/10 04:24:06;;;;;;;17.10;15.02;;;15.50;99.90;;;;;;4999670;28;20157;-68
2022/06/10 04:26:33;;;;;;;15.20;13.63;;;15.50;99.90;;;;;;5000750;28;20587;-70
2022/06/10 04:29:00;;;;;;;14.45;13.05;;;15.60;99.90;;;;;;4995519;28;20057;-68
2022/06/10 04:31:27;;;;;;;13.27;11.90;;;15.60;99.90;;;;;;4999901;28;20049;-72
2022/06/10 04:33:55;;;;;;;14.93;13.52;;;15.60;99.90;;;;;;4995993;28;20524;-70
2022/06/10 04:36:22;;;;;;;15.48;13.85;;;15.70;99.90;;;;;;4999736;28;20405;-68
2022/06/10 04:38:49;;;;;;;16.80;15.07;;;15.70;99.90;;;;;;4998911;28;20054;-69
2022/06/10 04:41:17;;;;;;;14.95;13.30;;;15.80;99.90;;;;;;4997677;28;20050;-69
2022/06/10 04:43:44;;;;;;;16.48;14.88;;;15.80;99.90;;;;;;4995682;28;20124;-69
2022/06/10 04:46:21;;;;;;;15.18;13.77;;;15.90;99.90;;;;;;4996901;28;20517;-68
2022/06/10 04:48:48;;;;;;;16.83;15.02;;;15.90;99.90;;;;;;4998311;28;20081;-70
2022/06/10 04:51:15;;;;;;;17.55;15.63;;;16.00;99.90;;;;;;4999157;28;20109;-69
2022/06/10 04:53:42;;;;;;;15.82;14.20;;;16.10;99.90;;;;;;4998941;28;20423;-68
2022/06/10 04:56:09;;;;;;;14.10;12.75;;;16.10;99.90;;;;;;4994906;28;20672;-68
2022/06/10 04:58:36;;;;;;;13.75;12.45;;;16.20;99.90;;;;;;4993086;28;20046;-68
2022/06/10 05:01:03;;;;;;;19.42;14.95;;;16.20;99.90;;;;;;4990482;28;20915;-70
2022/06/10 05:03:30;;;;;;;16.92;14.70;;;16.30;99.90;;;;;;4993606;28;20066;-68
2022/06/10 05:05:57;;;;;;;14.68;13.27;;;16.40;99.90;;;;;;4998256;28;20085;-68
2022/06/10 05:08:24;;;;;;;15.40;14.10;;;16.50;99.90;;;;;;4992139;28;20197;-68
2022/06/10 05:10:51;;;;;;;15.32;13.82;;;16.50;99.90;;;;;;4998091;28;20043;-67
2022/06/10 05:13:20;;;;;;;20.83;15.55;;;16.60;99.90;;;;;;4996957;28;20046;-67
2022/06/10 05:15:49;;;;;;;16.40;14.70;;;16.70;99.90;;;;;;4992585;28;20050;-70
2022/06/10 05:18:20;;;;;;;17.92;15.43;;;16.70;99.90;;;;;;4992685;28;20054;-67
2022/06/10 05:20:47;;;;;;;21.02;17.65;;;16.80;99.90;;;;;;4995561;28;21453;-67
2022/06/10 05:23:18;;;;;;;15.35;13.75;;;16.90;99.90;;;;;;4995143;28;20050;-68
2022/06/10 05:25:45;;;;;;;15.68;14.18;;;17.00;99.90;;;;;;5000488;28;20045;-68
2022/06/10 05:28:14;;;;;;;14.73;13.27;;;17.10;99.90;;;;;;4997147;28;20579;-67
2022/06/10 05:30:41;;;;;;;16.45;14.85;;;17.20;99.90;;;;;;4996035;28;20128;-68
2022/06/10 05:33:09;;;;;;;16.60;14.98;;;17.30;99.90;;;;;;4987319;28;20060;-67
2022/06/10 05:35:37;;;;;;;19.30;16.05;;;17.40;99.90;;;;;;4994300;28;20646;-68
2022/06/10 05:38:05;;;;;;;14.93;13.10;;;17.50;99.90;;;;;;4997821;28;20047;-69
2022/06/10 05:40:34;;;;;;;16.92;15.27;;;17.50;99.90;;;;;;4986969;28;20092;-66
2022/06/10 05:43:01;;;;;;;15.63;14.20;;;17.60;99.90;;;;;;4998616;28;20053;-66
2022/06/10 05:45:28;;;;;;;15.05;13.73;;;17.70;99.90;;;;;;4997728;28;20070;-67
2022/06/10 05:48:00;;;;;;;17.75;16.08;;;17.80;99.90;;;;;;4995139;28;20038;-69
2022/06/10 05:50:37;;;;;;;14.55;12.95;;;17.90;99.90;;;;;;4989686;28;20060;-68
2022/06/10 05:53:07;;;;;;;15.82;14.00;;;18.00;99.90;;;;;;4993728;28;20144;-68
2022/06/10 05:55:35;;;;;;;17.17;15.38;;;18.10;99.90;;;;;;4994576;28;20545;-68
2022/06/10 05:58:08;;;;;;;13.88;12.38;;;18.10;99.90;;;;;;4987606;28;20118;-67
2022/06/10 06:00:35;;;;;;;13.18;11.98;;;18.20;99.90;;;;;;4992145;28;20600;-66
2022/06/10 06:03:02;;;;;;;13.60;12.27;;;18.30;99.90;;;;;;4995326;28;20587;-67
2022/06/10 06:05:30;;;;;;;14.38;11.48;;;18.40;99.90;;;;;;4994544;28;20149;-67
2022/06/10 06:07:57;;;;;;;15.23;13.73;;;18.40;99.90;;;;;;4995355;28;20159;-68
2022/06/10 06:10:26;;;;;;;13.48;12.18;;;18.40;99.90;;;;;;4992575;28;20548;-67
2022/06/10 06:12:54;;;;;;;14.27;12.98;;;18.40;99.90;;;;;;4995414;28;20745;-68
2022/06/10 06:15:21;;;;;;;12.75;11.45;;;18.50;99.90;;;;;;4995181;28;20041;-67
2022/06/10 06:17:50;;;;;;;12.50;11.20;;;18.50;99.90;;;;;;5000131;28;20602;-68
2022/06/10 06:20:17;;;;;;;13.57;12.18;;;18.50;99.90;;;;;;4994925;28;20065;-67
2022/06/10 06:22:46;;;;;;;13.60;11.43;;;18.30;99.90;;;;;;4993460;28;20046;-67
2022/06/10 06:25:15;;;;;;;13.35;12.13;;;18.10;99.90;;;;;;4995955;28;20393;-69
2022/06/10 06:27:44;;;;;;;14.30;13.02;;;18.00;99.90;;;;;;4991763;28;20057;-67
2022/06/10 06:30:32;;;;;;;14.07;12.52;;;17.90;99.90;;;;;;4996855;28;20109;-67
2022/06/10 06:33:04;;;;;;;16.35;14.73;;;17.90;99.90;;;;;;4998899;28;20065;-68
2022/06/10 06:35:34;;;;;;;18.85;14.85;;;17.90;99.90;;;;;;4991397;28;20077;-67
2022/06/10 06:38:02;;;;;;;15.10;13.60;;;17.90;99.90;;;;;;4996609;28;20054;-68
2022/06/10 06:40:30;;;;;;;15.10;13.52;;;17.80;99.90;;;;;;4997655;28;20073;-68
2022/06/10 06:42:57;;;;;;;13.70;12.32;;;17.80;99.90;;;;;;4997349;28;20574;-67
2022/06/10 06:45:25;;;;;;;13.35;12.02;;;17.80;99.90;;;;;;4999573;28;20172;-69
2022/06/10 06:48:01;;;;;;;15.45;13.13;;;17.80;99.90;;;;;;4997497;28;20085;-68
2022/06/10 06:50:30;;;;;;;13.02;11.93;;;17.80;99.90;;;;;;4999743;28;20038;-68
2022/06/10 06:52:57;;;;;;;16.48;14.85;;;17.80;99.90;;;;;;4999694;28;20058;-67
2022/06/10 06:55:31;;;;;;;13.60;11.98;;;17.70;99.90;;;;;;4998665;28;20052;-69
2022/06/10 06:57:58;;;;;;;13.10;11.75;;;17.70;99.90;;;;;;5001137;28;20145;-67
2022/06/10 07:00:27;;;;;;;14.15;12.95;;;17.70;99.90;;;;;;4998004;28;20556;-67
2022/06/10 07:02:54;;;;;;;14.57;13.27;;;17.70;99.90;;;;;;5000764;28;20068;-68
2022/06/10 07:05:22;;;;;;;10.88;9.93;;;17.80;99.90;;;;;;5003253;28;20547;-71
2022/06/10 07:07:49;;;;;;;14.25;12.77;;;17.80;99.90;;;;;;4999479;28;20649;-68
2022/06/10 07:10:19;;;;;;;13.90;12.52;;;17.80;99.90;;;;;;5001189;28;20554;-68
2022/06/10 07:12:47;;;;;;;16.63;13.50;;;17.80;99.90;;;;;;5000488;28;20661;-67
2022/06/10 07:15:14;;;;;;;19.65;15.02;;;17.80;99.90;;;;;;5003726;28;20532;-68
2022/06/10 07:17:41;;;;;;;12.48;11.20;;;17.80;99.90;;;;;;5008191;28;20049;-68
2022/06/10 07:20:11;;;;;;;12.45;11.35;;;17.80;99.90;;;;;;4998956;28;20282;-67
2022/06/10 07:22:38;;;;;;;14.13;12.73;;;17.80;99.90;;;;;;4995260;28;20073;-67
2022/06/10 07:25:05;;;;;;;15.35;13.82;;;17.90;99.90;;;;;;4999317;28;20538;-69
2022/06/10 07:27:32;;;;;;;14.05;12.75;;;17.90;99.90;;;;;;5000164;28;20417;-67
2022/06/10 07:30:06;;;;;;;;;;;17.90;99.90;;;;;;5000511;28;20057;-67
2022/06/10 07:32:33;;;;;;;15.40;13.98;;;17.90;99.90;;;;;;4997538;28;19944;-67
2022/06/10 07:35:00;;;;;;;14.50;13.23;;;17.90;99.90;;;;;;5001329;28;20128;-67
2022/06/10 07:37:28;;;;;;;15.02;13.57;;;18.00;99.90;;;;;;4997501;28;20056;-67
2022/06/10 07:39:55;;;;;;;16.25;14.68;;;18.00;99.90;;;;;;4993867;28;20050;-69
2022/06/10 07:42:22;;;;;;;15.45;13.93;;;18.00;99.90;;;;;;5001415;28;20053;-67
2022/06/10 07:44:48;;;;;;;16.48;14.93;;;18.00;99.90;;;;;;5002461;28;20136;-69
2022/06/10 07:47:16;;;;;;;14.55;13.15;;;18.00;99.90;;;;;;4999722;28;20058;-68
2022/06/10 07:49:43;;;;;;;13.80;12.50;;;18.10;99.90;;;;;;5000494;28;20042;-69
2022/06/10 07:52:12;;;;;;;16.58;14.57;;;18.10;99.90;;;;;;4995579;28;20108;-67
2022/06/10 07:54:39;;;;;;;18.20;16.30;;;18.20;99.90;;;;;;4994038;28;20143;-67
2022/06/10 07:57:11;;;;;;;17.88;16.10;;;18.20;99.90;;;;;;4995177;28;20625;-69
2022/06/10 07:59:40;;;;;;;20.15;16.95;;;18.20;99.90;;;;;;4996747;28;20368;-68
2022/06/10 08:02:07;;;;;;;17.90;16.23;;;18.10;99.90;;;;;;4993434;28;20072;-69
2022/06/10 08:04:34;;;;;;;16.35;14.73;;;18.10;99.90;;;;;;5001269;28;20049;-68
2022/06/10 08:07:01;;;;;;;16.38;14.73;;;18.10;99.90;;;;;;4999869;28;20424;-69
2022/06/10 08:09:28;;;;;;;14.35;12.98;;;18.20;99.90;;;;;;5001589;28;20527;-68
2022/06/10 08:11:55;;;;;;;21.10;14.90;;;18.20;99.90;;;;;;4996372;28;20056;-69
2022/06/10 08:14:22;;;;;;;17.80;15.93;;;18.20;99.90;;;;;;5003788;28;20120;-68
2022/06/10 08:16:49;;;;;;;21.70;16.08;;;18.20;99.90;;;;;;5001995;28;20228;-69
2022/06/10 08:19:16;;;;;;;20.25;15.43;;;18.30;99.90;;;;;;5002006;28;20559;-69
2022/06/10 08:24:46;;;;;;;16.83;15.32;;;18.30;99.90;;;;;;4953270;28;20066;-72
2022/06/10 08:27:13;;;;;;;13.18;11.98;;;18.40;99.90;;;;;;4994124;28;20049;-68
2022/06/10 08:29:40;;;;;;;14.73;13.32;;;18.50;99.90;;;;;;4994798;28;20046;-69
2022/06/10 08:32:07;;;;;;;14.15;12.93;;;18.70;99.90;;;;;;5000633;28;20148;-69
2022/06/10 08:34:36;;;;;;;14.85;13.35;;;18.80;99.90;;;;;;4999221;28;20057;-69
2022/06/10 08:37:04;;;;;;;14.77;13.10;;;18.90;99.90;;;;;;4999909;28;20559;-68
2022/06/10 08:39:30;;;;;;;13.57;12.38;;;19.00;99.90;;;;;;5000604;28;20062;-68
2022/06/10 08:42:13;;;;;;;14.48;13.07;;;19.10;99.90;;;;;;4999410;28;20045;-68
2022/06/10 08:44:44;;;;;;;13.80;12.45;;;19.30;99.90;;;;;;4979815;28;20046;-68
2022/06/10 08:47:44;;;;;;;10.98;9.88;;;19.20;99.90;;;;;;4999147;28;20162;-68
2022/06/10 08:50:22;;;;;;;12.32;11.10;;;19.40;99.90;;;;;;4994919;28;20046;-68
2022/06/10 08:52:59;;;;;;;11.07;9.98;;;19.50;99.90;;;;;;4998043;28;20061;-68
2022/06/10 08:55:44;;;;;;;13.30;12.05;;;19.60;99.90;;;;;;4999828;28;20192;-69
2022/06/10 08:58:20;;;;;;;14.35;12.88;;;19.60;99.90;;;;;;5002366;28;20377;-69
2022/06/10 09:01:00;;;;;;;15.40;14.02;;;19.70;99.90;;;;;;4992110;28;20057;-68
2022/06/10 09:03:50;;;;;;;16.65;15.15;;;19.60;99.90;;;;;;5000029;28;20046;-69
2022/06/10 09:06:28;;;;;;;18.02;16.27;;;19.50;99.90;;;;;;4997712;28;20062;-70
2022/06/10 09:09:01;;;;;;;17.65;15.85;;;19.20;99.90;;;;;;4995783;28;20050;-68
2022/06/10 09:11:52;;;;;;;17.55;15.95;;;19.00;99.90;;;;;;4993959;28;20061;-69
2022/06/10 09:14:22;;;;;;;16.75;15.07;;;19.00;99.90;;;;;;4991399;28;20204;-68
2022/06/10 09:16:53;;;;;;;15.82;14.27;;;19.10;99.90;;;;;;4990059;28;20141;-68
2022/06/10 09:19:44;;;;;;;17.15;15.55;;;19.50;99.90;;;;;;4998440;28;20200;-68
2022/06/10 09:22:46;;;;;;;19.23;16.00;;;19.70;99.90;;;;;;4997413;28;20105;-69
2022/06/10 09:25:40;;;;;;;15.85;14.38;;;19.50;99.90;;;;;;4996405;28;20093;-68
2022/06/10 09:28:07;;;;;;;15.60;14.10;;;19.60;99.90;;;;;;4995787;28;20062;-69
2022/06/10 09:30:52;;;;;;;16.27;14.80;;;19.60;99.90;;;;;;4997077;28;20706;-71
2022/06/10 09:33:34;;;;;;;15.05;13.40;;;19.80;99.90;;;;;;4997074;28;20069;-70
2022/06/10 09:36:19;;;;;;;14.55;13.18;;;19.90;99.90;;;;;;4998928;28;20180;-69
2022/06/10 09:38:58;;;;;;;13.55;12.15;;;19.30;99.90;;;;;;4996150;28;20077;-69
2022/06/10 09:41:43;;;;;;;12.23;10.98;;;19.10;99.90;;;;;;4998573;28;20088;-69
2022/06/10 09:44:44;;;;;;;10.55;9.52;;;18.90;99.90;;;;;;4998598;28;20642;-69
2022/06/10 09:47:19;;;;;;;9.57;8.73;;;18.60;99.90;;;;;;5012092;28;20660;-69
2022/06/10 09:50:01;;;;;;;10.55;9.65;;;18.20;99.90;;;;;;4997275;28;20843;-69
2022/06/10 09:52:41;;;;;;;11.32;10.32;;;18.10;99.90;;;;;;4991427;28;20052;-69
2022/06/10 09:55:26;;;;;;;10.13;9.32;;;18.20;99.90;;;;;;4994941;28;20050;-69
2022/06/10 09:58:05;;;;;;;9.82;8.82;;;18.30;99.90;;;;;;4998929;28;20140;-69
2022/06/10 10:00:43;;;;;;;10.63;9.43;;;18.30;99.90;;;;;;4998165;28;20058;-68
2022/06/10 10:03:31;;;;;;;9.77;8.95;;;18.40;99.90;;;;;;4994061;28;20053;-69
2022/06/10 10:06:35;;;;;;;10.77;9.68;;;18.50;99.90;;;;;;4999665;28;20085;-69
2022/06/10 10:09:17;;;;;;;12.48;11.13;;;18.70;99.90;;;;;;4998237;28;20137;-68
2022/06/10 10:11:50;;;;;;;10.80;9.80;;;18.70;99.90;;;;;;4998089;28;20622;-69
2022/06/10 10:14:35;;;;;;;11.18;10.18;;;18.80;99.90;;;;;;4990682;28;20435;-70
2022/06/10 10:17:33;;;;;;;9.18;8.48;;;19.00;99.90;;;;;;5002970;28;20050;-69
2022/06/10 10:20:16;;;;;;;9.25;8.45;;;19.30;99.90;;;;;;4995489;28;20058;-69
2022/06/10 10:22:51;;;;;;;10.05;9.10;;;19.50;99.90;;;;;;5000861;28;20060;-69
2022/06/10 10:25:23;;;;;;;9.07;8.27;;;19.70;99.90;;;;;;5003975;28;20376;-69
2022/06/10 10:27:52;;;;;;;9.02;8.30;;;19.90;99.90;;;;;;4992781;28;20081;-69
2022/06/10 10:30:41;;;;;;;8.95;8.02;;;20.00;99.90;;;;;;4982796;28;20062;-70
2022/06/10 10:33:14;;;;;;;8.77;8.00;;;20.20;99.90;;;;;;4974947;28;20046;-69
2022/06/10 10:35:52;;;;;;;9.48;8.57;;;20.20;99.90;;;;;;4980534;28;20105;-68
2022/06/10 10:38:40;;;;;;;10.40;9.50;;;20.40;99.90;;;;;;4974484;28;20145;-69
2022/06/10 10:41:36;;;;;;;9.57;8.77;;;20.50;99.90;;;;;;4978862;28;20042;-69
2022/06/10 10:44:44;;;;;;;9.05;8.35;;;20.50;99.90;;;;;;4982909;28;20069;-69
2022/06/10 10:47:11;;;;;;;8.57;7.80;;;20.50;99.90;;;;;;4879497;29;20119;-69
2022/06/10 10:50:01;;;;;;;8.27;7.50;;;20.50;99.90;;;;;;4887534;29;20083;-69
2022/06/10 10:52:32;;;;;;;9.50;8.60;;;20.50;99.90;;;;;;4941576;28;20133;-69
2022/06/10 10:55:11;;;;;;;8.00;7.30;;;20.60;99.90;;;;;;4984116;28;20536;-69
2022/06/10 10:57:43;;;;;;;8.60;7.90;;;20.70;99.90;;;;;;4981518;28;20410;-69
2022/06/10 11:00:10;;;;;;;9.05;8.15;;;20.70;99.90;;;;;;4979808;28;20058;-69
2022/06/10 11:02:41;;;;;;;8.82;7.90;;;20.80;99.90;;;;;;4982148;28;20640;-69
2022/06/10 11:05:37;;;;;;;8.68;7.10;;;20.80;99.90;;;;;;4981427;28;20821;-69
2022/06/10 11:08:24;;;;;;;9.23;8.43;;;20.90;99.90;;;;;;4977576;28;20708;-70
2022/06/10 11:10:59;;;;;;;11.18;9.90;;;21.00;99.90;;;;;;4980432;28;20038;-68
2022/06/10 11:13:46;;;;;;;8.90;8.20;;;20.60;99.90;;;;;;4984198;28;20046;-69
2022/06/10 11:16:26;;;;;;;10.50;9.50;;;20.20;99.90;;;;;;4983240;28;20121;-69
2022/06/10 11:19:04;;;;;;;9.87;8.67;;;20.40;99.90;;;;;;4981765;28;20140;-68
2022/06/10 11:21:42;;;;;;;10.80;9.77;;;20.40;99.90;;;;;;4984691;28;20096;-69
2022/06/10 11:24:16;;;;;;;10.32;9.43;;;20.40;99.90;;;;;;4978970;28;20047;-69
2022/06/10 11:26:56;;;;;;;10.32;9.43;;;20.40;99.90;;;;;;4982638;28;20046;-69
2022/06/10 11:29:23;;;;;;;10.57;9.57;;;20.40;99.90;;;;;;4997854;28;20045;-69
2022/06/10 11:31:57;;;;;;;11.15;10.05;;;20.50;99.90;;;;;;5002133;28;20058;-70
2022/06/10 11:34:34;;;;;;;12.15;10.95;;;20.40;99.90;;;;;;4990774;28;20161;-69
2022/06/10 11:37:37;;;;;;;12.50;11.20;;;20.30;99.90;;;;;;5003187;28;20793;-69
2022/06/10 11:40:39;;;;;;;11.73;10.60;;;20.30;99.90;;;;;;4997576;28;20096;-69
2022/06/10 11:43:31;;;;;;;10.88;9.77;;;20.40;99.90;;;;;;4995397;28;20053;-70
2022/06/10 11:46:04;;;;;;;12.32;10.82;;;20.40;99.90;;;;;;4999419;28;20053;-69
2022/06/10 11:48:55;;;;;;;10.07;9.07;;;20.50;99.90;;;;;;5000372;28;20071;-68
2022/06/10 11:51:35;;;;;;;10.35;9.45;;;20.60;99.90;;;;;;5000558;28;20050;-69
2022/06/10 11:54:29;;;;;;;10.88;9.48;;;20.60;99.90;;;;;;5001560;28;20042;-69
2022/06/10 12:00:20;;;;;;;9.45;8.40;;;20.50;99.90;;;;;;5001569;28;20453;-70
2022/06/10 12:02:49;;;;;;;8.20;7.40;;;20.50;99.90;;;;;;4995959;28;20069;-71
2022/06/10 12:05:35;;;;;;;9.20;8.38;;;20.70;99.90;;;;;;5004511;28;21463;-70
2022/06/10 12:08:41;;;;;;;8.85;8.05;;;20.60;99.90;;;;;;4997285;28;20042;-69
2022/06/10 12:11:43;;;;;;;9.07;8.27;;;20.70;99.90;;;;;;4986739;28;20634;-69
2022/06/10 12:14:28;;;;;;;10.20;9.30;;;21.00;99.90;;;;;;4992631;28;20046;-68
2022/06/10 12:17:14;;;;;;;12.40;8.05;;;21.10;99.90;;;;;;4998065;28;20050;-68
2022/06/10 12:19:59;;;;;;;7.70;6.97;;;21.20;99.90;;;;;;4999184;28;20483;-68
2022/06/10 12:22:27;;;;;;;7.97;7.22;;;21.50;99.90;;;;;;4970807;28;20074;-69
2022/06/10 12:24:56;;;;;;;8.52;7.68;;;21.60;99.90;;;;;;4991939;28;20050;-68
2022/06/10 12:27:29;;;;;;;8.70;7.93;;;21.70;99.90;;;;;;4994710;28;20070;-69
2022/06/10 12:30:12;;;;;;;9.65;8.65;;;21.50;99.90;;;;;;4996478;28;20046;-69
2022/06/10 12:33:20;;;;;;;8.32;7.53;;;21.20;99.90;;;;;;4996910;28;20541;-69
2022/06/10 12:35:48;;;;;;;8.63;6.20;;;21.30;99.90;;;;;;4939864;28;20157;-70
2022/06/10 12:38:25;;;;;;;6.63;6.10;;;21.30;99.90;;;;;;4985705;28;20661;-70
2022/06/10 12:41:00;;;;;;;6.40;5.80;;;21.30;99.90;;;;;;4989287;28;20045;-69
2022/06/10 12:43:33;;;;;;;7.03;6.38;;;21.40;99.90;;;;;;4988220;28;20053;-69
2022/06/10 12:46:35;;;;;;;6.20;5.65;;;21.50;99.90;;;;;;4997971;28;20061;-69
2022/06/10 12:49:19;;;;;;;8.20;7.47;;;21.70;99.90;;;;;;4966728;28;20389;-69
2022/06/10 12:52:01;;;;;;;7.03;6.32;;;21.90;99.90;;;;;;4998058;28;20049;-69
2022/06/10 12:54:39;;;;;;;6.25;5.65;;;22.00;99.90;;;;;;5008594;28;20077;-70
2022/06/10 12:57:40;;;;;;;6.00;5.50;;;21.90;99.90;;;;;;4983450;28;20041;-70
2022/06/10 13:00:19;;;;;;;6.15;5.63;;;22.10;99.90;;;;;;4977880;28;20061;-69
2022/06/10 13:02:49;;;;;;;8.07;5.32;;;22.40;99.90;;;;;;4990341;28;20124;-70
2022/06/10 13:05:24;;;;;;;5.65;5.22;;;22.20;99.90;;;;;;5000127;28;20050;-71
2022/06/10 13:07:51;;;;;;;4.80;4.40;;;22.30;99.90;;;;;;4997252;28;20056;-70
2022/06/10 13:10:33;;;;;;;6.28;5.78;;;22.40;99.90;;;;;;4987980;28;20053;-70
2022/06/10 13:13:22;;;;;;;6.13;5.53;;;22.40;99.90;;;;;;4989473;28;20635;-72
2022/06/10 13:16:13;;;;;;;5.25;4.85;;;22.60;99.90;;;;;;4991239;28;20063;-69
2022/06/10 13:18:41;;;;;;;5.50;5.00;;;22.30;99.90;;;;;;4985056;28;20065;-69
2022/06/10 13:21:15;;;;;;;5.43;4.97;;;22.40;99.90;;;;;;4988737;28;20113;-71
2022/06/10 13:24:07;;;;;;;5.22;4.82;;;22.60;99.90;;;;;;4989912;28;20049;-70